Terminal Aerodrome Forecast
Issued by NWS

Current Version | Previous Version | Text Only | Print | Product List | Glossary On
Versions: 1 2 3 4 5 6 7 8 9 10 11 12 13 14 15 16 17 18 19
000
FTUS41 KGYX 022330
TAFHIE
TAF
KHIE 022330Z 0300/0324 30009G16KT P6SM -SHSN BKN025 OVC035
      TEMPO 0300/0302 2SM -SHSN BKN025
     FM030400 29008KT P6SM SCT040
     FM030600 00000KT P6SM SKC
     FM031800 18005KT P6SM BKN100=

USA.gov is the U.S. government's official web portal to all federal, state and local government web resources and services.